Aérodrome :
LOGIN :

S'inscrire | Disclaimer

   EN    FR    IT 

 










Légende :    VFR   VFR Marginal   IFR   IFR Intensif   IFR Très Intensif
Visi : 
Plafond : 
>= 8 km
>= 3000ft
5 à 8 km
1000 à 3000 ft
1500m à 5 km
500 à 1000 ft
800 à 1500m
200 à 500 ft
< 800m
< 200 ft
Symboles :   Orages  Brouillard  Fortes neiges  Fortes précipitations  Vent > 20 kt
SIGMETs :   Divers  Orages  Givrage  Turbulence  Onde Orograph.  Cendres Volcan.







- Altitude de l'aérodrome : 584 ft
- Voir les cartes d'approche


LFPV - Villacoublay Vélizy

DERNIER METAR :
  • 220030Z AUTO 12003KT CAVOK 19/09 Q1015 NOSIG

METARs EXPIRÉS :
  • 220000Z AUTO 12003KT CAVOK 20/09 Q1015 TEMPO 4500 SHRA BKN025CB
  • 212330Z AUTO 11003KT CAVOK 20/08 Q1015 TEMPO 4500 SHRA BKN025CB
  • 212300Z AUTO 11003KT CAVOK 20/08 Q1015 TEMPO 4500 SHRA BKN025CB
  • 212230Z AUTO 11004KT CAVOK 20/08 Q1015 TEMPO 4500 SHRA BKN025CB
  • 212200Z AUTO 10006KT CAVOK 21/08 Q1015 TEMPO 4500 SHRA BKN025CB

TAF TAF LFPV
Valide du 21 à 21h jusqu'au 22 à 21h UTC


212000Z 2121/2221 08005KT CAVOK
TEMPO 2122/2201 4500 SHRA BKN025CB
PROB30
TEMPO 2122/2201 SHRAGR
Pas de NOTAMs connus pour ce terrain.
1 SIGMET publié pour la FIR Paris (LFFF) :
 
Orages noyés dans la masse
LFFF SIGMET 2 VALID 212330/220315 LFPW
LFFF PARIS FIR/UIR EMBD TS OBS AT 2320Z WI N5015 E00000 - N5045 E00100 - N4915 E00130 - N4845 E00030 - N5015 E00000 TOP FL340 MOV NE 20KT NC=



MET'MAP, la Météo Aéronautique d'un coup d'oeil ! - Copyright ORBIFLY Décembre 2007 - Disclaimer

ORBIFLY MET'MAP TEAM :

Programmation & Développement : Alexandra Zaïnal
Conception & Développement : Baudouin d'Aumeries
Co-Programmation & Développement : Marc-Olivier Méhu
Soutien technique & logistique : Manuel Goepfert

Contact : metmap@orbifly.com




SOURCES & CREDITS :

   NOAA